createdAt,value
2019-05-06T01:01:38.926Z,11.23
2019-05-06T01:04:14.002Z,8.47
2019-05-06T01:06:44.146Z,8.27
2019-05-06T01:09:19.428Z,6.60
2019-05-06T01:11:51.128Z,6.83
2019-05-06T01:14:30.209Z,9.53
2019-05-06T01:17:10.940Z,10.07
2019-05-06T01:19:46.664Z,8.73
2019-05-06T01:22:16.499Z,8.30
2019-05-06T01:24:49.401Z,7.60
2019-05-06T01:27:21.607Z,7.37
2019-05-06T01:29:54.432Z,8.07
2019-05-06T01:32:28.756Z,9.27
2019-05-06T01:35:08.622Z,8.37
2019-05-06T01:37:44.133Z,8.40
2019-05-06T01:40:36.703Z,9.50
2019-05-06T01:43:16.181Z,7.43
2019-05-06T01:45:53.619Z,7.47
2019-05-06T01:48:44.309Z,9.87
2019-05-06T01:51:15.070Z,6.27
2019-05-06T01:53:46.397Z,6.10
2019-05-06T01:56:17.106Z,8.10
2019-05-06T01:58:49.026Z,13.30
2019-05-06T02:01:21.992Z,9.03
2019-05-06T02:03:57.142Z,6.63
2019-05-06T02:06:36.613Z,9.27
2019-05-06T02:09:39.621Z,8.87
2019-05-06T02:12:53.890Z,7.23
2019-05-06T02:16:11.344Z,9.93
2019-05-06T02:18:41.442Z,10.20
2019-05-06T02:21:46.208Z,9.07
2019-05-06T02:24:54.490Z,5.70
2019-05-06T02:27:28.167Z,9.27
2019-05-06T02:30:50.786Z,7.07
2019-05-06T02:33:40.248Z,9.43
2019-05-06T02:36:21.382Z,11.53
2019-05-06T02:39:03.655Z,6.63
2019-05-06T02:41:36.796Z,8.13
2019-05-06T02:44:13.594Z,9.63
2019-05-06T02:46:44.383Z,8.03
2019-05-06T05:20:37.013Z,9.53
2019-05-06T06:26:53.906Z,4.40
2019-05-06T06:29:39.103Z,3.60
2019-05-06T06:33:08.180Z,5.63
2019-05-06T06:44:15.299Z,3.70
2019-05-06T06:47:07.212Z,3.77
2019-05-06T06:50:03.685Z,2.93
2019-05-06T06:52:59.032Z,4.97
2019-05-06T06:56:08.489Z,6.83
2019-05-06T06:59:24.480Z,5.10
2019-05-06T07:13:35.428Z,5.20
2019-05-06T10:55:14.740Z,4.37
2019-05-06T10:57:55.811Z,3.03
2019-05-06T11:00:27.620Z,3.27
2019-05-06T11:03:15.798Z,3.33
2019-05-06T11:08:46.417Z,3.77
2019-05-06T11:11:32.532Z,3.23
2019-05-06T11:13:59.812Z,4.57
2019-05-06T11:27:23.691Z,5.30
2019-05-06T11:33:36.350Z,4.83
2019-05-06T11:39:38.806Z,3.80
2019-05-06T11:42:58.160Z,2.90
2019-05-06T11:45:44.979Z,4.97
2019-05-06T11:55:42.732Z,4.60
2019-05-06T11:58:56.647Z,3.20
2019-05-06T12:16:54.792Z,1.97
2019-05-06T12:39:19.406Z,2.13
2019-05-06T12:43:04.724Z,2.37
2019-05-06T12:46:02.844Z,1.70
2019-05-06T17:23:52.259Z,4.25
2019-05-06T17:33:48.525Z,2.20
2019-05-06T17:36:39.474Z,2.23
2019-05-06T17:43:40.673Z,2.50
2019-05-06T17:47:17.965Z,3.93
2019-05-06T17:50:22.470Z,1.90
2019-05-06T17:53:46.135Z,2.87
2019-05-06T22:54:27.109Z,6.57
2019-05-06T22:57:08.086Z,7.37
2019-05-06T22:59:39.233Z,7.57
2019-05-06T23:02:22.495Z,7.67
2019-05-06T23:05:04.412Z,7.20
2019-05-06T23:07:34.251Z,7.20
2019-05-06T23:10:08.741Z,7.17
2019-05-06T23:12:43.363Z,7.13
2019-05-06T23:15:17.994Z,9.23
2019-05-06T23:17:49.840Z,6.47
2019-05-06T23:20:27.318Z,8.90
2019-05-06T23:22:57.044Z,6.13
2019-05-06T23:25:32.520Z,9.70
2019-05-06T23:28:03.957Z,5.13
2019-05-06T23:30:43.805Z,8.33
2019-05-06T23:33:15.219Z,9.93
2019-05-06T23:35:52.772Z,9.83
2019-05-06T23:38:57.988Z,5.27
2019-05-06T23:45:32.504Z,7.23
2019-05-06T23:48:39.239Z,8.47
2019-05-06T23:51:43.886Z,8.60
2019-05-06T23:55:03.304Z,7.80
2019-05-06T23:57:32.821Z,7.03
